sensor_id;sensor_type;location;lat;lon;timestamp;P1;durP1;ratioP1;P2;durP2;ratioP2
29724;SDS011;16636;48.394;15.468;2022-12-11T00:00:20;32.88;;;13.40;;
29724;SDS011;16636;48.394;15.468;2022-12-11T00:02:46;31.73;;;12.93;;
29724;SDS011;16636;48.394;15.468;2022-12-11T00:05:13;29.88;;;11.48;;
29724;SDS011;16636;48.394;15.468;2022-12-11T00:07:39;35.28;;;12.25;;
29724;SDS011;16636;48.394;15.468;2022-12-11T00:10:06;35.03;;;12.85;;
29724;SDS011;16636;48.394;15.468;2022-12-11T00:12:32;34.67;;;13.85;;
29724;SDS011;16636;48.394;15.468;2022-12-11T00:14:58;33.15;;;14.10;;
29724;SDS011;16636;48.394;15.468;2022-12-11T00:17:24;33.72;;;11.75;;
29724;SDS011;16636;48.394;15.468;2022-12-11T00:19:50;26.40;;;11.15;;
29724;SDS011;16636;48.394;15.468;2022-12-11T00:22:16;31.58;;;13.05;;
29724;SDS011;16636;48.394;15.468;2022-12-11T00:24:42;28.33;;;12.20;;
29724;SDS011;16636;48.394;15.468;2022-12-11T00:27:08;41.25;;;13.90;;
29724;SDS011;16636;48.394;15.468;2022-12-11T00:29:34;36.58;;;12.15;;
29724;SDS011;16636;48.394;15.468;2022-12-11T00:32:00;29.67;;;12.75;;
29724;SDS011;16636;48.394;15.468;2022-12-11T00:34:26;26.65;;;11.88;;
29724;SDS011;16636;48.394;15.468;2022-12-11T00:36:52;27.02;;;10.10;;
29724;SDS011;16636;48.394;15.468;2022-12-11T00:39:18;29.25;;;11.75;;
29724;SDS011;16636;48.394;15.468;2022-12-11T00:41:44;22.35;;;10.50;;
29724;SDS011;16636;48.394;15.468;2022-12-11T00:44:10;23.27;;;9.70;;
29724;SDS011;16636;48.394;15.468;2022-12-11T00:46:36;21.50;;;9.32;;
29724;SDS011;16636;48.394;15.468;2022-12-11T00:49:02;24.60;;;10.15;;
29724;SDS011;16636;48.394;15.468;2022-12-11T00:51:28;25.30;;;9.68;;
29724;SDS011;16636;48.394;15.468;2022-12-11T00:53:54;25.42;;;10.35;;
29724;SDS011;16636;48.394;15.468;2022-12-11T00:56:21;23.88;;;9.98;;
29724;SDS011;16636;48.394;15.468;2022-12-11T00:58:47;27.58;;;11.55;;
29724;SDS011;16636;48.394;15.468;2022-12-11T01:01:17;23.05;;;9.85;;
29724;SDS011;16636;48.394;15.468;2022-12-11T01:03:47;29.20;;;10.33;;
29724;SDS011;16636;48.394;15.468;2022-12-11T01:06:15;29.75;;;11.85;;
29724;SDS011;16636;48.394;15.468;2022-12-11T01:08:44;25.50;;;10.98;;
29724;SDS011;16636;48.394;15.468;2022-12-11T01:11:12;25.80;;;10.63;;
29724;SDS011;16636;48.394;15.468;2022-12-11T01:13:40;28.75;;;10.65;;
29724;SDS011;16636;48.394;15.468;2022-12-11T01:16:12;30.75;;;11.68;;
29724;SDS011;16636;48.394;15.468;2022-12-11T01:18:40;27.15;;;11.32;;
29724;SDS011;16636;48.394;15.468;2022-12-11T01:21:06;22.98;;;10.18;;
29724;SDS011;16636;48.394;15.468;2022-12-11T01:23:34;30.40;;;11.40;;
29724;SDS011;16636;48.394;15.468;2022-12-11T01:26:07;31.05;;;12.23;;
29724;SDS011;16636;48.394;15.468;2022-12-11T01:28:35;31.85;;;12.60;;
29724;SDS011;16636;48.394;15.468;2022-12-11T01:31:01;24.42;;;10.00;;
29724;SDS011;16636;48.394;15.468;2022-12-11T01:33:32;27.67;;;12.20;;
29724;SDS011;16636;48.394;15.468;2022-12-11T01:35:58;31.00;;;12.55;;
29724;SDS011;16636;48.394;15.468;2022-12-11T01:38:24;27.27;;;9.75;;
29724;SDS011;16636;48.394;15.468;2022-12-11T01:40:50;34.40;;;12.93;;
29724;SDS011;16636;48.394;15.468;2022-12-11T01:43:16;28.38;;;12.52;;
29724;SDS011;16636;48.394;15.468;2022-12-11T01:45:44;24.90;;;11.05;;
29724;SDS011;16636;48.394;15.468;2022-12-11T01:48:30;25.95;;;10.73;;
29724;SDS011;16636;48.394;15.468;2022-12-11T01:50:59;29.10;;;12.48;;
29724;SDS011;16636;48.394;15.468;2022-12-11T01:53:32;28.30;;;10.55;;
29724;SDS011;16636;48.394;15.468;2022-12-11T01:56:00;29.88;;;10.32;;
29724;SDS011;16636;48.394;15.468;2022-12-11T01:58:28;31.75;;;12.23;;
29724;SDS011;16636;48.394;15.468;2022-12-11T02:00:58;28.48;;;11.23;;
29724;SDS011;16636;48.394;15.468;2022-12-11T02:03:25;34.38;;;12.77;;
29724;SDS011;16636;48.394;15.468;2022-12-11T02:05:51;21.08;;;10.32;;
29724;SDS011;16636;48.394;15.468;2022-12-11T02:08:17;28.67;;;11.57;;
29724;SDS011;16636;48.394;15.468;2022-12-11T02:10:53;26.20;;;10.73;;
29724;SDS011;16636;48.394;15.468;2022-12-11T02:13:24;23.52;;;10.27;;
29724;SDS011;16636;48.394;15.468;2022-12-11T02:16:33;32.35;;;13.05;;
29724;SDS011;16636;48.394;15.468;2022-12-11T02:21:51;31.38;;;12.50;;
29724;SDS011;16636;48.394;15.468;2022-12-11T02:29:29;23.80;;;10.65;;
29724;SDS011;16636;48.394;15.468;2022-12-11T02:32:10;28.17;;;11.60;;
29724;SDS011;16636;48.394;15.468;2022-12-11T02:34:47;25.98;;;10.02;;
29724;SDS011;16636;48.394;15.468;2022-12-11T02:37:28;27.25;;;11.77;;
29724;SDS011;16636;48.394;15.468;2022-12-11T02:39:57;33.80;;;12.25;;
29724;SDS011;16636;48.394;15.468;2022-12-11T02:42:25;28.98;;;10.68;;
29724;SDS011;16636;48.394;15.468;2022-12-11T02:44:55;33.72;;;11.77;;
29724;SDS011;16636;48.394;15.468;2022-12-11T02:47:24;27.83;;;10.23;;
29724;SDS011;16636;48.394;15.468;2022-12-11T02:49:53;24.40;;;10.45;;
29724;SDS011;16636;48.394;15.468;2022-12-11T02:52:22;30.17;;;10.68;;
29724;SDS011;16636;48.394;15.468;2022-12-11T02:54:51;29.02;;;11.55;;
29724;SDS011;16636;48.394;15.468;2022-12-11T02:57:28;27.50;;;11.55;;
29724;SDS011;16636;48.394;15.468;2022-12-11T03:00:04;23.88;;;10.13;;
29724;SDS011;16636;48.394;15.468;2022-12-11T03:02:31;22.65;;;10.68;;
29724;SDS011;16636;48.394;15.468;2022-12-11T03:04:57;30.67;;;11.20;;
29724;SDS011;16636;48.394;15.468;2022-12-11T03:07:26;23.88;;;9.32;;
29724;SDS011;16636;48.394;15.468;2022-12-11T03:09:57;23.50;;;9.73;;
29724;SDS011;16636;48.394;15.468;2022-12-11T03:12:24;27.85;;;10.63;;
29724;SDS011;16636;48.394;15.468;2022-12-11T03:14:59;26.65;;;10.70;;
29724;SDS011;16636;48.394;15.468;2022-12-11T03:22:33;21.38;;;8.77;;
29724;SDS011;16636;48.394;15.468;2022-12-11T03:27:37;28.58;;;10.98;;
29724;SDS011;16636;48.394;15.468;2022-12-11T03:30:10;27.83;;;11.15;;
29724;SDS011;16636;48.394;15.468;2022-12-11T03:32:41;19.08;;;9.02;;
29724;SDS011;16636;48.394;15.468;2022-12-11T03:35:24;25.27;;;10.60;;
29724;SDS011;16636;48.394;15.468;2022-12-11T03:38:20;23.63;;;10.40;;
29724;SDS011;16636;48.394;15.468;2022-12-11T03:40:50;21.40;;;9.00;;
29724;SDS011;16636;48.394;15.468;2022-12-11T03:43:20;26.23;;;10.18;;
29724;SDS011;16636;48.394;15.468;2022-12-11T03:45:47;22.15;;;8.40;;
29724;SDS011;16636;48.394;15.468;2022-12-11T03:48:15;21.75;;;9.35;;
29724;SDS011;16636;48.394;15.468;2022-12-11T03:50:43;16.65;;;7.75;;
29724;SDS011;16636;48.394;15.468;2022-12-11T03:53:11;18.60;;;7.68;;
29724;SDS011;16636;48.394;15.468;2022-12-11T03:55:37;20.45;;;8.55;;
29724;SDS011;16636;48.394;15.468;2022-12-11T03:58:04;18.42;;;7.75;;
29724;SDS011;16636;48.394;15.468;2022-12-11T04:00:31;21.17;;;8.93;;
29724;SDS011;16636;48.394;15.468;2022-12-11T04:02:57;20.95;;;7.57;;
29724;SDS011;16636;48.394;15.468;2022-12-11T04:05:41;14.10;;;6.55;;
29724;SDS011;16636;48.394;15.468;2022-12-11T04:08:09;14.55;;;6.93;;
29724;SDS011;16636;48.394;15.468;2022-12-11T04:10:35;18.27;;;6.82;;
29724;SDS011;16636;48.394;15.468;2022-12-11T04:13:01;18.55;;;6.85;;
29724;SDS011;16636;48.394;15.468;2022-12-11T04:15:27;16.50;;;6.47;;
29724;SDS011;16636;48.394;15.468;2022-12-11T04:17:53;16.55;;;7.75;;
29724;SDS011;16636;48.394;15.468;2022-12-11T04:20:37;12.52;;;5.47;;
29724;SDS011;16636;48.394;15.468;2022-12-11T04:23:22;18.15;;;6.45;;
29724;SDS011;16636;48.394;15.468;2022-12-11T04:26:08;12.73;;;6.22;;
29724;SDS011;16636;48.394;15.468;2022-12-11T04:28:36;14.27;;;6.38;;
29724;SDS011;16636;48.394;15.468;2022-12-11T04:31:03;17.75;;;6.13;;
29724;SDS011;16636;48.394;15.468;2022-12-11T04:33:29;13.70;;;6.53;;
29724;SDS011;16636;48.394;15.468;2022-12-11T04:35:56;15.35;;;6.88;;
29724;SDS011;16636;48.394;15.468;2022-12-11T04:38:23;12.82;;;6.10;;
29724;SDS011;16636;48.394;15.468;2022-12-11T04:40:56;12.63;;;6.13;;
29724;SDS011;16636;48.394;15.468;2022-12-11T04:43:23;17.27;;;7.22;;
29724;SDS011;16636;48.394;15.468;2022-12-11T04:45:49;14.55;;;7.22;;
29724;SDS011;16636;48.394;15.468;2022-12-11T04:48:15;13.30;;;6.60;;
29724;SDS011;16636;48.394;15.468;2022-12-11T04:50:41;13.43;;;7.10;;
29724;SDS011;16636;48.394;15.468;2022-12-11T04:53:06;16.63;;;7.15;;
29724;SDS011;16636;48.394;15.468;2022-12-11T04:55:32;13.85;;;7.03;;
29724;SDS011;16636;48.394;15.468;2022-12-11T04:57:58;14.80;;;7.68;;
29724;SDS011;16636;48.394;15.468;2022-12-11T05:00:24;13.77;;;6.32;;
29724;SDS011;16636;48.394;15.468;2022-12-11T05:02:51;14.15;;;6.60;;
29724;SDS011;16636;48.394;15.468;2022-12-11T05:05:17;14.25;;;6.60;;
29724;SDS011;16636;48.394;15.468;2022-12-11T05:07:43;17.83;;;7.30;;
29724;SDS011;16636;48.394;15.468;2022-12-11T05:10:09;14.68;;;6.65;;
29724;SDS011;16636;48.394;15.468;2022-12-11T05:12:35;13.77;;;6.72;;
29724;SDS011;16636;48.394;15.468;2022-12-11T05:15:01;16.70;;;6.97;;
29724;SDS011;16636;48.394;15.468;2022-12-11T05:17:28;18.35;;;7.28;;
29724;SDS011;16636;48.394;15.468;2022-12-11T05:19:54;15.48;;;5.88;;
29724;SDS011;16636;48.394;15.468;2022-12-11T05:22:20;12.75;;;6.40;;
29724;SDS011;16636;48.394;15.468;2022-12-11T05:24:46;16.73;;;7.47;;
29724;SDS011;16636;48.394;15.468;2022-12-11T05:27:12;19.13;;;6.63;;
29724;SDS011;16636;48.394;15.468;2022-12-11T05:29:39;15.68;;;6.95;;
29724;SDS011;16636;48.394;15.468;2022-12-11T05:32:05;18.38;;;7.40;;
29724;SDS011;16636;48.394;15.468;2022-12-11T05:34:32;20.13;;;6.18;;
29724;SDS011;16636;48.394;15.468;2022-12-11T05:36:58;18.52;;;7.05;;
29724;SDS011;16636;48.394;15.468;2022-12-11T05:39:24;16.48;;;6.90;;
29724;SDS011;16636;48.394;15.468;2022-12-11T05:41:50;14.88;;;5.35;;
29724;SDS011;16636;48.394;15.468;2022-12-11T05:44:16;16.63;;;6.90;;
29724;SDS011;16636;48.394;15.468;2022-12-11T05:46:42;16.33;;;7.30;;
29724;SDS011;16636;48.394;15.468;2022-12-11T05:49:09;16.38;;;7.40;;
29724;SDS011;16636;48.394;15.468;2022-12-11T05:51:35;19.45;;;8.20;;
29724;SDS011;16636;48.394;15.468;2022-12-11T05:54:01;16.95;;;7.85;;
29724;SDS011;16636;48.394;15.468;2022-12-11T05:56:29;16.90;;;7.38;;
29724;SDS011;16636;48.394;15.468;2022-12-11T05:58:57;17.10;;;6.97;;
29724;SDS011;16636;48.394;15.468;2022-12-11T06:01:28;18.15;;;8.10;;
29724;SDS011;16636;48.394;15.468;2022-12-11T06:03:56;14.15;;;7.03;;
29724;SDS011;16636;48.394;15.468;2022-12-11T06:06:23;16.65;;;6.65;;
29724;SDS011;16636;48.394;15.468;2022-12-11T06:08:51;13.90;;;6.57;;
29724;SDS011;16636;48.394;15.468;2022-12-11T06:11:18;14.10;;;6.22;;
29724;SDS011;16636;48.394;15.468;2022-12-11T06:13:45;14.93;;;7.88;;
29724;SDS011;16636;48.394;15.468;2022-12-11T06:16:11;18.23;;;7.28;;
29724;SDS011;16636;48.394;15.468;2022-12-11T06:18:37;17.02;;;6.85;;
29724;SDS011;16636;48.394;15.468;2022-12-11T06:23:55;14.70;;;6.43;;
29724;SDS011;16636;48.394;15.468;2022-12-11T06:26:23;15.93;;;5.90;;
29724;SDS011;16636;48.394;15.468;2022-12-11T06:28:50;14.25;;;6.32;;
29724;SDS011;16636;48.394;15.468;2022-12-11T06:31:16;14.13;;;6.57;;
29724;SDS011;16636;48.394;15.468;2022-12-11T06:33:43;22.75;;;6.43;;
29724;SDS011;16636;48.394;15.468;2022-12-11T06:36:11;22.15;;;7.97;;
29724;SDS011;16636;48.394;15.468;2022-12-11T06:38:39;39.15;;;8.77;;
29724;SDS011;16636;48.394;15.468;2022-12-11T06:41:07;19.42;;;7.55;;
29724;SDS011;16636;48.394;15.468;2022-12-11T06:43:34;17.25;;;7.97;;
29724;SDS011;16636;48.394;15.468;2022-12-11T06:46:03;26.73;;;9.68;;
29724;SDS011;16636;48.394;15.468;2022-12-11T06:48:30;24.63;;;8.77;;
29724;SDS011;16636;48.394;15.468;2022-12-11T06:50:56;23.33;;;9.52;;
29724;SDS011;16636;48.394;15.468;2022-12-11T06:53:22;19.98;;;8.32;;
29724;SDS011;16636;48.394;15.468;2022-12-11T06:55:48;14.38;;;6.97;;
29724;SDS011;16636;48.394;15.468;2022-12-11T06:58:14;14.27;;;7.10;;
29724;SDS011;16636;48.394;15.468;2022-12-11T07:00:41;15.43;;;6.07;;
29724;SDS011;16636;48.394;15.468;2022-12-11T07:03:08;12.30;;;6.10;;
29724;SDS011;16636;48.394;15.468;2022-12-11T07:05:34;14.02;;;6.28;;
29724;SDS011;16636;48.394;15.468;2022-12-11T07:08:00;9.02;;;5.18;;
29724;SDS011;16636;48.394;15.468;2022-12-11T07:10:27;15.15;;;6.03;;
29724;SDS011;16636;48.394;15.468;2022-12-11T07:12:53;10.52;;;5.65;;
29724;SDS011;16636;48.394;15.468;2022-12-11T07:15:20;9.88;;;4.75;;
29724;SDS011;16636;48.394;15.468;2022-12-11T07:17:46;14.80;;;5.88;;
29724;SDS011;16636;48.394;15.468;2022-12-11T07:20:12;12.52;;;5.03;;
29724;SDS011;16636;48.394;15.468;2022-12-11T07:22:38;15.43;;;7.68;;
29724;SDS011;16636;48.394;15.468;2022-12-11T07:25:05;12.48;;;5.93;;
29724;SDS011;16636;48.394;15.468;2022-12-11T07:27:31;11.02;;;5.45;;
29724;SDS011;16636;48.394;15.468;2022-12-11T07:29:57;11.98;;;6.10;;
29724;SDS011;16636;48.394;15.468;2022-12-11T07:32:23;17.73;;;7.38;;
29724;SDS011;16636;48.394;15.468;2022-12-11T07:34:49;11.55;;;6.22;;
29724;SDS011;16636;48.394;15.468;2022-12-11T07:37:16;15.32;;;6.55;;
29724;SDS011;16636;48.394;15.468;2022-12-11T07:39:42;14.10;;;6.32;;
29724;SDS011;16636;48.394;15.468;2022-12-11T07:42:08;17.15;;;6.00;;
29724;SDS011;16636;48.394;15.468;2022-12-11T07:44:34;12.50;;;5.75;;
29724;SDS011;16636;48.394;15.468;2022-12-11T07:47:00;12.23;;;5.70;;
29724;SDS011;16636;48.394;15.468;2022-12-11T07:49:26;13.07;;;5.95;;
29724;SDS011;16636;48.394;15.468;2022-12-11T07:51:53;14.07;;;6.15;;
29724;SDS011;16636;48.394;15.468;2022-12-11T07:54:18;13.93;;;6.63;;
29724;SDS011;16636;48.394;15.468;2022-12-11T07:56:45;17.48;;;6.20;;
29724;SDS011;16636;48.394;15.468;2022-12-11T07:59:12;12.77;;;5.47;;
29724;SDS011;16636;48.394;15.468;2022-12-11T08:01:38;10.45;;;5.13;;
29724;SDS011;16636;48.394;15.468;2022-12-11T08:04:07;11.07;;;5.82;;
29724;SDS011;16636;48.394;15.468;2022-12-11T08:06:35;12.40;;;6.07;;
29724;SDS011;16636;48.394;15.468;2022-12-11T08:09:04;20.73;;;6.72;;
29724;SDS011;16636;48.394;15.468;2022-12-11T08:11:32;13.38;;;5.70;;
29724;SDS011;16636;48.394;15.468;2022-12-11T08:14:00;10.68;;;6.13;;
29724;SDS011;16636;48.394;15.468;2022-12-11T08:16:26;10.63;;;5.90;;
29724;SDS011;16636;48.394;15.468;2022-12-11T08:18:53;10.98;;;5.18;;
29724;SDS011;16636;48.394;15.468;2022-12-11T08:21:24;13.50;;;6.07;;
29724;SDS011;16636;48.394;15.468;2022-12-11T08:23:51;10.80;;;5.68;;
29724;SDS011;16636;48.394;15.468;2022-12-11T08:26:23;13.10;;;5.72;;
29724;SDS011;16636;48.394;15.468;2022-12-11T08:28:51;13.73;;;5.38;;
29724;SDS011;16636;48.394;15.468;2022-12-11T08:31:17;14.23;;;6.18;;
29724;SDS011;16636;48.394;15.468;2022-12-11T08:33:44;13.65;;;6.78;;
29724;SDS011;16636;48.394;15.468;2022-12-11T08:36:12;12.43;;;5.28;;
29724;SDS011;16636;48.394;15.468;2022-12-11T08:38:41;13.88;;;6.15;;
29724;SDS011;16636;48.394;15.468;2022-12-11T08:43:34;18.35;;;6.15;;
29724;SDS011;16636;48.394;15.468;2022-12-11T08:46:00;13.27;;;5.13;;
29724;SDS011;16636;48.394;15.468;2022-12-11T08:48:26;11.90;;;4.70;;
29724;SDS011;16636;48.394;15.468;2022-12-11T08:50:52;12.48;;;6.13;;
29724;SDS011;16636;48.394;15.468;2022-12-11T08:53:18;14.00;;;6.43;;
29724;SDS011;16636;48.394;15.468;2022-12-11T08:55:43;12.80;;;5.72;;
29724;SDS011;16636;48.394;15.468;2022-12-11T08:58:09;7.43;;;4.70;;
29724;SDS011;16636;48.394;15.468;2022-12-11T09:00:35;14.50;;;6.38;;
29724;SDS011;16636;48.394;15.468;2022-12-11T09:03:02;11.82;;;5.43;;
29724;SDS011;16636;48.394;15.468;2022-12-11T09:05:28;13.52;;;6.07;;
29724;SDS011;16636;48.394;15.468;2022-12-11T09:07:56;10.00;;;5.18;;
29724;SDS011;16636;48.394;15.468;2022-12-11T09:10:23;9.45;;;5.00;;
29724;SDS011;16636;48.394;15.468;2022-12-11T09:12:48;15.88;;;6.50;;
29724;SDS011;16636;48.394;15.468;2022-12-11T09:15:14;9.70;;;4.57;;
29724;SDS011;16636;48.394;15.468;2022-12-11T09:17:40;9.25;;;4.13;;
29724;SDS011;16636;48.394;15.468;2022-12-11T09:20:07;14.95;;;4.97;;
29724;SDS011;16636;48.394;15.468;2022-12-11T09:22:33;9.13;;;4.75;;
29724;SDS011;16636;48.394;15.468;2022-12-11T09:24:59;10.85;;;5.05;;
29724;SDS011;16636;48.394;15.468;2022-12-11T09:27:25;8.95;;;5.28;;
29724;SDS011;16636;48.394;15.468;2022-12-11T09:29:52;10.70;;;5.28;;
29724;SDS011;16636;48.394;15.468;2022-12-11T09:32:17;10.60;;;5.22;;
29724;SDS011;16636;48.394;15.468;2022-12-11T09:34:43;10.07;;;5.10;;
29724;SDS011;16636;48.394;15.468;2022-12-11T09:37:09;7.53;;;3.95;;
29724;SDS011;16636;48.394;15.468;2022-12-11T09:39:36;12.68;;;5.18;;
29724;SDS011;16636;48.394;15.468;2022-12-11T09:42:04;11.27;;;4.40;;
29724;SDS011;16636;48.394;15.468;2022-12-11T09:44:53;9.48;;;4.40;;
29724;SDS011;16636;48.394;15.468;2022-12-11T09:47:33;13.50;;;6.28;;
29724;SDS011;16636;48.394;15.468;2022-12-11T09:55:21;9.95;;;5.22;;
29724;SDS011;16636;48.394;15.468;2022-12-11T10:08:22;11.48;;;5.63;;
29724;SDS011;16636;48.394;15.468;2022-12-11T10:17:01;12.82;;;6.00;;
29724;SDS011;16636;48.394;15.468;2022-12-11T10:19:31;14.25;;;5.95;;
29724;SDS011;16636;48.394;15.468;2022-12-11T10:21:59;11.10;;;5.82;;
29724;SDS011;16636;48.394;15.468;2022-12-11T10:27:18;12.77;;;6.63;;
29724;SDS011;16636;48.394;15.468;2022-12-11T10:29:46;10.18;;;5.38;;
29724;SDS011;16636;48.394;15.468;2022-12-11T10:32:21;10.93;;;4.95;;
29724;SDS011;16636;48.394;15.468;2022-12-11T10:35:00;12.27;;;5.35;;
29724;SDS011;16636;48.394;15.468;2022-12-11T10:37:30;12.63;;;5.45;;
29724;SDS011;16636;48.394;15.468;2022-12-11T10:39:56;8.07;;;3.90;;
29724;SDS011;16636;48.394;15.468;2022-12-11T10:42:22;12.82;;;5.32;;
29724;SDS011;16636;48.394;15.468;2022-12-11T10:44:55;10.38;;;4.38;;
29724;SDS011;16636;48.394;15.468;2022-12-11T10:47:26;9.23;;;4.75;;
29724;SDS011;16636;48.394;15.468;2022-12-11T10:49:54;11.90;;;5.10;;
29724;SDS011;16636;48.394;15.468;2022-12-11T10:52:23;7.22;;;3.90;;
29724;SDS011;16636;48.394;15.468;2022-12-11T10:57:29;10.90;;;4.93;;
29724;SDS011;16636;48.394;15.468;2022-12-11T10:59:58;9.63;;;4.15;;
29724;SDS011;16636;48.394;15.468;2022-12-11T11:02:35;10.63;;;4.63;;
29724;SDS011;16636;48.394;15.468;2022-12-11T11:05:38;8.93;;;4.25;;
29724;SDS011;16636;48.394;15.468;2022-12-11T11:08:21;9.23;;;4.68;;
29724;SDS011;16636;48.394;15.468;2022-12-11T11:10:51;9.43;;;4.97;;
29724;SDS011;16636;48.394;15.468;2022-12-11T11:13:25;11.82;;;5.45;;
29724;SDS011;16636;48.394;15.468;2022-12-11T11:16:00;9.00;;;4.75;;
29724;SDS011;16636;48.394;15.468;2022-12-11T11:18:31;7.43;;;4.32;;
29724;SDS011;16636;48.394;15.468;2022-12-11T11:20:58;8.77;;;4.72;;
29724;SDS011;16636;48.394;15.468;2022-12-11T11:23:25;11.88;;;5.20;;
29724;SDS011;16636;48.394;15.468;2022-12-11T11:25:53;14.20;;;5.63;;
29724;SDS011;16636;48.394;15.468;2022-12-11T11:28:34;11.35;;;5.15;;
29724;SDS011;16636;48.394;15.468;2022-12-11T11:31:03;13.65;;;4.90;;
29724;SDS011;16636;48.394;15.468;2022-12-11T11:33:30;9.20;;;5.22;;
29724;SDS011;16636;48.394;15.468;2022-12-11T11:36:03;10.13;;;4.40;;
29724;SDS011;16636;48.394;15.468;2022-12-11T11:38:43;10.23;;;5.00;;
29724;SDS011;16636;48.394;15.468;2022-12-11T11:41:34;8.55;;;4.30;;
29724;SDS011;16636;48.394;15.468;2022-12-11T11:44:07;11.95;;;4.55;;
29724;SDS011;16636;48.394;15.468;2022-12-11T11:46:39;9.93;;;4.45;;
29724;SDS011;16636;48.394;15.468;2022-12-11T11:49:22;7.53;;;3.78;;
29724;SDS011;16636;48.394;15.468;2022-12-11T11:54:38;11.05;;;4.75;;
29724;SDS011;16636;48.394;15.468;2022-12-11T11:57:12;6.28;;;3.75;;
29724;SDS011;16636;48.394;15.468;2022-12-11T11:59:57;11.05;;;5.10;;
29724;SDS011;16636;48.394;15.468;2022-12-11T12:02:37;9.05;;;4.47;;
29724;SDS011;16636;48.394;15.468;2022-12-11T12:05:08;12.30;;;5.75;;
29724;SDS011;16636;48.394;15.468;2022-12-11T12:07:44;8.88;;;4.13;;
29724;SDS011;16636;48.394;15.468;2022-12-11T12:12:53;9.52;;;4.40;;
29724;SDS011;16636;48.394;15.468;2022-12-11T12:15:35;12.65;;;4.15;;
29724;SDS011;16636;48.394;15.468;2022-12-11T12:18:19;9.65;;;4.45;;
29724;SDS011;16636;48.394;15.468;2022-12-11T12:23:53;7.55;;;3.88;;
29724;SDS011;16636;48.394;15.468;2022-12-11T12:26:27;10.45;;;5.30;;
29724;SDS011;16636;48.394;15.468;2022-12-11T12:37:42;10.13;;;4.45;;
29724;SDS011;16636;48.394;15.468;2022-12-11T12:40:30;8.87;;;4.33;;
29724;SDS011;16636;48.394;15.468;2022-12-11T12:43:25;10.32;;;5.30;;
29724;SDS011;16636;48.394;15.468;2022-12-11T12:46:04;8.32;;;4.22;;
29724;SDS011;16636;48.394;15.468;2022-12-11T12:48:38;10.88;;;5.13;;
29724;SDS011;16636;48.394;15.468;2022-12-11T12:51:04;10.75;;;4.82;;
29724;SDS011;16636;48.394;15.468;2022-12-11T12:53:32;12.02;;;5.03;;
29724;SDS011;16636;48.394;15.468;2022-12-11T12:56:01;10.50;;;4.72;;
29724;SDS011;16636;48.394;15.468;2022-12-11T13:01:16;8.77;;;4.63;;
29724;SDS011;16636;48.394;15.468;2022-12-11T13:09:17;14.93;;;6.53;;
29724;SDS011;16636;48.394;15.468;2022-12-11T13:11:49;11.35;;;5.43;;
29724;SDS011;16636;48.394;15.468;2022-12-11T13:16:46;10.45;;;4.85;;
29724;SDS011;16636;48.394;15.468;2022-12-11T13:24:48;11.05;;;4.60;;
29724;SDS011;16636;48.394;15.468;2022-12-11T13:27:35;10.32;;;5.07;;
29724;SDS011;16636;48.394;15.468;2022-12-11T13:30:06;13.60;;;6.20;;
29724;SDS011;16636;48.394;15.468;2022-12-11T13:37:44;11.25;;;5.63;;
29724;SDS011;16636;48.394;15.468;2022-12-11T13:42:51;15.40;;;7.55;;
29724;SDS011;16636;48.394;15.468;2022-12-11T13:45:22;56.40;;;25.08;;
29724;SDS011;16636;48.394;15.468;2022-12-11T13:47:56;65.05;;;23.50;;
29724;SDS011;16636;48.394;15.468;2022-12-11T13:50:24;21.45;;;9.82;;
29724;SDS011;16636;48.394;15.468;2022-12-11T13:52:56;32.13;;;11.70;;
29724;SDS011;16636;48.394;15.468;2022-12-11T13:55:25;130.40;;;39.97;;
29724;SDS011;16636;48.394;15.468;2022-12-11T13:57:54;136.98;;;47.05;;
29724;SDS011;16636;48.394;15.468;2022-12-11T14:00:22;20.63;;;10.48;;
29724;SDS011;16636;48.394;15.468;2022-12-11T14:02:57;39.30;;;13.15;;
29724;SDS011;16636;48.394;15.468;2022-12-11T14:05:26;192.90;;;46.70;;
29724;SDS011;16636;48.394;15.468;2022-12-11T14:07:54;42.08;;;16.50;;
29724;SDS011;16636;48.394;15.468;2022-12-11T14:10:23;18.17;;;8.68;;
29724;SDS011;16636;48.394;15.468;2022-12-11T14:13:04;15.65;;;7.68;;
29724;SDS011;16636;48.394;15.468;2022-12-11T14:15:35;10.98;;;5.15;;
29724;SDS011;16636;48.394;15.468;2022-12-11T14:18:01;11.98;;;5.78;;
29724;SDS011;16636;48.394;15.468;2022-12-11T14:20:30;10.27;;;5.55;;
29724;SDS011;16636;48.394;15.468;2022-12-11T14:23:14;12.35;;;5.43;;
29724;SDS011;16636;48.394;15.468;2022-12-11T14:25:50;17.73;;;8.65;;
29724;SDS011;16636;48.394;15.468;2022-12-11T14:28:21;13.77;;;6.10;;
29724;SDS011;16636;48.394;15.468;2022-12-11T14:30:53;11.15;;;6.05;;
29724;SDS011;16636;48.394;15.468;2022-12-11T14:33:23;11.07;;;5.30;;
29724;SDS011;16636;48.394;15.468;2022-12-11T14:36:02;9.98;;;5.07;;
29724;SDS011;16636;48.394;15.468;2022-12-11T14:38:43;11.98;;;4.93;;
29724;SDS011;16636;48.394;15.468;2022-12-11T14:41:28;10.80;;;4.75;;
29724;SDS011;16636;48.394;15.468;2022-12-11T14:44:03;9.82;;;5.18;;
29724;SDS011;16636;48.394;15.468;2022-12-11T14:46:36;9.07;;;4.97;;
29724;SDS011;16636;48.394;15.468;2022-12-11T14:49:14;12.93;;;5.65;;
29724;SDS011;16636;48.394;15.468;2022-12-11T14:51:41;12.95;;;6.30;;
29724;SDS011;16636;48.394;15.468;2022-12-11T14:54:42;19.33;;;8.55;;
29724;SDS011;16636;48.394;15.468;2022-12-11T14:57:04;18.77;;;7.07;;
29724;SDS011;16636;48.394;15.468;2022-12-11T14:59:38;13.93;;;6.45;;
29724;SDS011;16636;48.394;15.468;2022-12-11T15:02:22;19.70;;;8.85;;
29724;SDS011;16636;48.394;15.468;2022-12-11T15:05:14;11.25;;;5.60;;
29724;SDS011;16636;48.394;15.468;2022-12-11T15:08:00;9.90;;;4.68;;
29724;SDS011;16636;48.394;15.468;2022-12-11T15:13:29;13.05;;;5.20;;
29724;SDS011;16636;48.394;15.468;2022-12-11T15:15:57;10.00;;;4.55;;
29724;SDS011;16636;48.394;15.468;2022-12-11T15:18:32;9.95;;;4.90;;
29724;SDS011;16636;48.394;15.468;2022-12-11T15:21:02;9.43;;;4.60;;
29724;SDS011;16636;48.394;15.468;2022-12-11T15:23:45;11.63;;;3.90;;
29724;SDS011;16636;48.394;15.468;2022-12-11T15:26:15;9.70;;;4.15;;
29724;SDS011;16636;48.394;15.468;2022-12-11T15:28:41;9.88;;;5.30;;
29724;SDS011;16636;48.394;15.468;2022-12-11T15:31:27;7.35;;;4.13;;
29724;SDS011;16636;48.394;15.468;2022-12-11T15:33:54;8.65;;;4.32;;
29724;SDS011;16636;48.394;15.468;2022-12-11T15:36:31;9.68;;;4.50;;
29724;SDS011;16636;48.394;15.468;2022-12-11T15:39:02;9.40;;;4.55;;
29724;SDS011;16636;48.394;15.468;2022-12-11T15:41:32;21.30;;;10.32;;
29724;SDS011;16636;48.394;15.468;2022-12-11T15:44:02;13.23;;;5.72;;
29724;SDS011;16636;48.394;15.468;2022-12-11T15:46:29;15.05;;;6.75;;
29724;SDS011;16636;48.394;15.468;2022-12-11T15:49:00;8.48;;;4.35;;
29724;SDS011;16636;48.394;15.468;2022-12-11T15:51:26;11.27;;;5.03;;
29724;SDS011;16636;48.394;15.468;2022-12-11T15:53:53;10.50;;;5.10;;
29724;SDS011;16636;48.394;15.468;2022-12-11T15:56:19;8.43;;;4.90;;
29724;SDS011;16636;48.394;15.468;2022-12-11T15:58:45;9.48;;;4.15;;
29724;SDS011;16636;48.394;15.468;2022-12-11T16:01:12;8.77;;;4.38;;
29724;SDS011;16636;48.394;15.468;2022-12-11T16:03:38;11.75;;;4.95;;
29724;SDS011;16636;48.394;15.468;2022-12-11T16:06:04;9.25;;;4.35;;
29724;SDS011;16636;48.394;15.468;2022-12-11T16:08:30;8.77;;;4.18;;